sensor_id;sensor_type;location;lat;lon;timestamp;temperature;humidity
62998;DHT22;55949;52.590;7.330;2023-12-20T00:00:15;7.70;99.90
62998;DHT22;55949;52.590;7.330;2023-12-20T00:01:16;7.70;99.90
62998;DHT22;55949;52.590;7.330;2023-12-20T00:02:17;7.60;99.90
62998;DHT22;55949;52.590;7.330;2023-12-20T00:03:17;7.70;99.90
62998;DHT22;55949;52.590;7.330;2023-12-20T00:04:18;7.70;99.90
62998;DHT22;55949;52.590;7.330;2023-12-20T00:05:18;7.50;99.90
62998;DHT22;55949;52.590;7.330;2023-12-20T00:06:19;7.70;99.90
62998;DHT22;55949;52.590;7.330;2023-12-20T00:07:20;7.50;99.90
62998;DHT22;55949;52.590;7.330;2023-12-20T00:08:20;7.60;99.90
62998;DHT22;55949;52.590;7.330;2023-12-20T00:09:21;7.70;99.90
62998;DHT22;55949;52.590;7.330;2023-12-20T00:10:22;7.60;99.90
62998;DHT22;55949;52.590;7.330;2023-12-20T00:11:23;7.50;99.90
62998;DHT22;55949;52.590;7.330;2023-12-20T00:12:23;7.50;99.90
62998;DHT22;55949;52.590;7.330;2023-12-20T00:13:24;7.50;99.90
62998;DHT22;55949;52.590;7.330;2023-12-20T00:14:24;7.50;99.90
62998;DHT22;55949;52.590;7.330;2023-12-20T00:15:25;7.50;99.90
62998;DHT22;55949;52.590;7.330;2023-12-20T00:16:26;7.50;99.90
62998;DHT22;55949;52.590;7.330;2023-12-20T00:17:26;7.50;99.90
62998;DHT22;55949;52.590;7.330;2023-12-20T00:18:27;7.90;99.90
62998;DHT22;55949;52.590;7.330;2023-12-20T00:19:28;7.70;99.90
62998;DHT22;55949;52.590;7.330;2023-12-20T00:20:29;7.80;99.90
62998;DHT22;55949;52.590;7.330;2023-12-20T00:21:30;7.70;99.90
62998;DHT22;55949;52.590;7.330;2023-12-20T00:22:30;7.70;99.90
62998;DHT22;55949;52.590;7.330;2023-12-20T00:23:31;7.80;99.90
62998;DHT22;55949;52.590;7.330;2023-12-20T00:24:32;7.60;99.90
62998;DHT22;55949;52.590;7.330;2023-12-20T00:25:32;7.60;99.90
62998;DHT22;55949;52.590;7.330;2023-12-20T00:26:33;7.60;99.90
62998;DHT22;55949;52.590;7.330;2023-12-20T00:27:34;7.50;99.90
62998;DHT22;55949;52.590;7.330;2023-12-20T00:28:35;7.60;99.90
62998;DHT22;55949;52.590;7.330;2023-12-20T00:29:35;7.50;99.90
62998;DHT22;55949;52.590;7.330;2023-12-20T00:30:36;7.50;99.90
62998;DHT22;55949;52.590;7.330;2023-12-20T00:31:37;7.40;99.90
62998;DHT22;55949;52.590;7.330;2023-12-20T00:32:38;7.40;99.90
62998;DHT22;55949;52.590;7.330;2023-12-20T00:33:38;7.50;99.90
62998;DHT22;55949;52.590;7.330;2023-12-20T00:34:40;7.50;99.90
62998;DHT22;55949;52.590;7.330;2023-12-20T00:35:40;7.50;99.90
62998;DHT22;55949;52.590;7.330;2023-12-20T00:36:41;7.60;99.90
62998;DHT22;55949;52.590;7.330;2023-12-20T00:37:44;7.50;99.90
62998;DHT22;55949;52.590;7.330;2023-12-20T00:38:45;7.50;99.90
62998;DHT22;55949;52.590;7.330;2023-12-20T00:39:46;7.40;99.90
62998;DHT22;55949;52.590;7.330;2023-12-20T00:40:46;7.40;99.90
62998;DHT22;55949;52.590;7.330;2023-12-20T00:41:47;7.50;99.90
62998;DHT22;55949;52.590;7.330;2023-12-20T00:42:48;7.40;99.90
62998;DHT22;55949;52.590;7.330;2023-12-20T00:43:48;7.40;99.90
62998;DHT22;55949;52.590;7.330;2023-12-20T00:44:49;7.50;99.90
62998;DHT22;55949;52.590;7.330;2023-12-20T00:45:51;7.50;99.90
62998;DHT22;55949;52.590;7.330;2023-12-20T00:46:51;7.40;99.90
62998;DHT22;55949;52.590;7.330;2023-12-20T00:47:52;7.60;99.90
62998;DHT22;55949;52.590;7.330;2023-12-20T00:48:53;7.40;99.90
62998;DHT22;55949;52.590;7.330;2023-12-20T00:49:53;7.40;99.90
62998;DHT22;55949;52.590;7.330;2023-12-20T00:50:54;7.40;99.90
62998;DHT22;55949;52.590;7.330;2023-12-20T00:51:55;7.50;99.90
62998;DHT22;55949;52.590;7.330;2023-12-20T00:52:55;7.40;99.90
62998;DHT22;55949;52.590;7.330;2023-12-20T00:53:56;7.40;99.90
62998;DHT22;55949;52.590;7.330;2023-12-20T00:54:57;7.50;99.90
62998;DHT22;55949;52.590;7.330;2023-12-20T00:55:57;7.50;99.90
62998;DHT22;55949;52.590;7.330;2023-12-20T00:56:59;7.40;99.90
62998;DHT22;55949;52.590;7.330;2023-12-20T00:58:00;7.50;99.90
62998;DHT22;55949;52.590;7.330;2023-12-20T00:59:00;7.50;99.90
62998;DHT22;55949;52.590;7.330;2023-12-20T01:00:01;7.40;99.90
62998;DHT22;55949;52.590;7.330;2023-12-20T01:01:02;7.40;99.90
62998;DHT22;55949;52.590;7.330;2023-12-20T01:02:03;7.40;99.90
62998;DHT22;55949;52.590;7.330;2023-12-20T01:03:04;7.50;99.90
62998;DHT22;55949;52.590;7.330;2023-12-20T01:04:04;7.40;99.90
62998;DHT22;55949;52.590;7.330;2023-12-20T01:05:05;7.30;99.90
62998;DHT22;55949;52.590;7.330;2023-12-20T01:06:07;7.40;99.90
62998;DHT22;55949;52.590;7.330;2023-12-20T01:07:08;7.40;99.90
62998;DHT22;55949;52.590;7.330;2023-12-20T01:08:08;7.40;99.90
62998;DHT22;55949;52.590;7.330;2023-12-20T01:09:09;7.40;99.90
62998;DHT22;55949;52.590;7.330;2023-12-20T01:10:10;7.60;99.90
62998;DHT22;55949;52.590;7.330;2023-12-20T01:11:10;7.60;99.90
62998;DHT22;55949;52.590;7.330;2023-12-20T01:12:11;7.50;99.90
62998;DHT22;55949;52.590;7.330;2023-12-20T01:13:12;7.40;99.90
62998;DHT22;55949;52.590;7.330;2023-12-20T01:14:12;7.50;99.90
62998;DHT22;55949;52.590;7.330;2023-12-20T01:15:13;7.30;99.90
62998;DHT22;55949;52.590;7.330;2023-12-20T01:16:13;7.30;99.90
62998;DHT22;55949;52.590;7.330;2023-12-20T01:17:14;7.50;99.90
62998;DHT22;55949;52.590;7.330;2023-12-20T01:18:15;7.50;99.90
62998;DHT22;55949;52.590;7.330;2023-12-20T01:19:15;7.70;99.90
62998;DHT22;55949;52.590;7.330;2023-12-20T01:20:16;7.60;99.90
62998;DHT22;55949;52.590;7.330;2023-12-20T01:21:17;7.50;99.90
62998;DHT22;55949;52.590;7.330;2023-12-20T01:22:18;7.50;99.90
62998;DHT22;55949;52.590;7.330;2023-12-20T01:23:19;7.70;99.90
62998;DHT22;55949;52.590;7.330;2023-12-20T01:24:19;7.50;99.90
62998;DHT22;55949;52.590;7.330;2023-12-20T01:25:20;7.60;99.90
62998;DHT22;55949;52.590;7.330;2023-12-20T01:26:21;7.60;99.90
62998;DHT22;55949;52.590;7.330;2023-12-20T01:27:22;7.40;99.90
62998;DHT22;55949;52.590;7.330;2023-12-20T01:28:22;7.50;99.90
62998;DHT22;55949;52.590;7.330;2023-12-20T01:29:23;7.30;99.90
62998;DHT22;55949;52.590;7.330;2023-12-20T01:30:23;7.20;99.90
62998;DHT22;55949;52.590;7.330;2023-12-20T01:31:24;7.10;99.90
62998;DHT22;55949;52.590;7.330;2023-12-20T01:32:27;7.10;99.90
62998;DHT22;55949;52.590;7.330;2023-12-20T01:33:28;7.10;99.90
62998;DHT22;55949;52.590;7.330;2023-12-20T01:34:28;7.30;99.90
62998;DHT22;55949;52.590;7.330;2023-12-20T01:35:29;7.50;99.90
62998;DHT22;55949;52.590;7.330;2023-12-20T01:36:30;7.50;99.90
62998;DHT22;55949;52.590;7.330;2023-12-20T01:37:30;7.30;99.90
62998;DHT22;55949;52.590;7.330;2023-12-20T01:38:31;7.30;99.90
62998;DHT22;55949;52.590;7.330;2023-12-20T01:39:32;7.40;99.90
62998;DHT22;55949;52.590;7.330;2023-12-20T01:40:33;7.50;99.90
62998;DHT22;55949;52.590;7.330;2023-12-20T01:41:34;7.40;99.90
62998;DHT22;55949;52.590;7.330;2023-12-20T01:42:34;7.40;99.90
62998;DHT22;55949;52.590;7.330;2023-12-20T01:43:35;7.30;99.90
62998;DHT22;55949;52.590;7.330;2023-12-20T01:44:36;7.30;99.90
62998;DHT22;55949;52.590;7.330;2023-12-20T01:45:36;7.20;99.90
62998;DHT22;55949;52.590;7.330;2023-12-20T01:46:37;7.10;99.90
62998;DHT22;55949;52.590;7.330;2023-12-20T01:47:38;7.10;99.90
62998;DHT22;55949;52.590;7.330;2023-12-20T01:48:39;7.00;99.90
62998;DHT22;55949;52.590;7.330;2023-12-20T01:49:40;7.10;99.90
62998;DHT22;55949;52.590;7.330;2023-12-20T01:50:41;7.10;99.90
62998;DHT22;55949;52.590;7.330;2023-12-20T01:51:43;7.00;99.90
62998;DHT22;55949;52.590;7.330;2023-12-20T01:52:44;7.00;99.90
62998;DHT22;55949;52.590;7.330;2023-12-20T01:53:46;6.90;99.90
62998;DHT22;55949;52.590;7.330;2023-12-20T01:54:47;6.90;99.90
62998;DHT22;55949;52.590;7.330;2023-12-20T01:55:50;6.90;99.90
62998;DHT22;55949;52.590;7.330;2023-12-20T01:56:52;6.70;99.90
62998;DHT22;55949;52.590;7.330;2023-12-20T01:57:53;6.70;99.90
62998;DHT22;55949;52.590;7.330;2023-12-20T01:58:55;6.70;99.90
62998;DHT22;55949;52.590;7.330;2023-12-20T01:59:56;6.70;99.90
62998;DHT22;55949;52.590;7.330;2023-12-20T02:00:57;6.80;99.90
62998;DHT22;55949;52.590;7.330;2023-12-20T02:01:58;6.80;99.90
62998;DHT22;55949;52.590;7.330;2023-12-20T02:03:03;6.90;99.90
62998;DHT22;55949;52.590;7.330;2023-12-20T02:04:04;7.10;99.90
62998;DHT22;55949;52.590;7.330;2023-12-20T02:05:06;7.30;99.90
62998;DHT22;55949;52.590;7.330;2023-12-20T02:06:07;7.10;99.90
62998;DHT22;55949;52.590;7.330;2023-12-20T02:07:08;7.10;99.90
62998;DHT22;55949;52.590;7.330;2023-12-20T02:08:10;7.10;99.90
62998;DHT22;55949;52.590;7.330;2023-12-20T02:09:11;7.10;99.90
62998;DHT22;55949;52.590;7.330;2023-12-20T02:10:11;7.10;99.90
62998;DHT22;55949;52.590;7.330;2023-12-20T02:11:13;7.20;99.90
62998;DHT22;55949;52.590;7.330;2023-12-20T02:12:14;7.20;99.90
62998;DHT22;55949;52.590;7.330;2023-12-20T02:13:14;7.10;99.90
62998;DHT22;55949;52.590;7.330;2023-12-20T02:14:15;7.10;99.90
62998;DHT22;55949;52.590;7.330;2023-12-20T02:15:16;7.10;99.90
62998;DHT22;55949;52.590;7.330;2023-12-20T02:16:17;7.20;99.90
62998;DHT22;55949;52.590;7.330;2023-12-20T02:17:17;7.00;99.90
62998;DHT22;55949;52.590;7.330;2023-12-20T02:18:18;6.90;99.90
62998;DHT22;55949;52.590;7.330;2023-12-20T02:19:20;6.90;99.90
62998;DHT22;55949;52.590;7.330;2023-12-20T02:20:20;6.90;99.90
62998;DHT22;55949;52.590;7.330;2023-12-20T02:21:33;7.00;99.90
62998;DHT22;55949;52.590;7.330;2023-12-20T02:22:37;6.90;99.90
62998;DHT22;55949;52.590;7.330;2023-12-20T02:23:37;7.20;99.90
62998;DHT22;55949;52.590;7.330;2023-12-20T02:24:39;7.00;99.90
62998;DHT22;55949;52.590;7.330;2023-12-20T02:25:39;6.90;99.90
62998;DHT22;55949;52.590;7.330;2023-12-20T02:26:40;7.00;99.90
62998;DHT22;55949;52.590;7.330;2023-12-20T02:27:41;7.10;99.90
62998;DHT22;55949;52.590;7.330;2023-12-20T02:28:42;7.20;99.90
62998;DHT22;55949;52.590;7.330;2023-12-20T02:29:43;7.10;99.90
62998;DHT22;55949;52.590;7.330;2023-12-20T02:30:43;7.20;99.90
62998;DHT22;55949;52.590;7.330;2023-12-20T02:31:44;6.90;99.90
62998;DHT22;55949;52.590;7.330;2023-12-20T02:32:45;7.00;99.90
62998;DHT22;55949;52.590;7.330;2023-12-20T02:33:45;6.90;99.90
62998;DHT22;55949;52.590;7.330;2023-12-20T02:34:47;6.90;99.90
62998;DHT22;55949;52.590;7.330;2023-12-20T02:35:48;6.90;99.90
62998;DHT22;55949;52.590;7.330;2023-12-20T02:36:49;7.00;99.90
62998;DHT22;55949;52.590;7.330;2023-12-20T02:37:49;6.90;99.90
62998;DHT22;55949;52.590;7.330;2023-12-20T02:38:50;6.80;99.90
62998;DHT22;55949;52.590;7.330;2023-12-20T02:39:51;6.80;99.90
62998;DHT22;55949;52.590;7.330;2023-12-20T02:40:51;6.80;99.90
62998;DHT22;55949;52.590;7.330;2023-12-20T02:41:52;6.90;99.90
62998;DHT22;55949;52.590;7.330;2023-12-20T02:42:53;6.90;99.90
62998;DHT22;55949;52.590;7.330;2023-12-20T02:43:53;6.90;99.90
62998;DHT22;55949;52.590;7.330;2023-12-20T02:44:54;6.90;99.90
62998;DHT22;55949;52.590;7.330;2023-12-20T02:45:55;6.90;99.90
62998;DHT22;55949;52.590;7.330;2023-12-20T02:46:55;7.00;99.90
62998;DHT22;55949;52.590;7.330;2023-12-20T02:47:56;6.80;99.90
62998;DHT22;55949;52.590;7.330;2023-12-20T02:48:56;6.90;99.90
62998;DHT22;55949;52.590;7.330;2023-12-20T02:49:57;6.90;99.90
62998;DHT22;55949;52.590;7.330;2023-12-20T02:50:58;6.90;99.90
62998;DHT22;55949;52.590;7.330;2023-12-20T02:51:58;7.20;99.90
62998;DHT22;55949;52.590;7.330;2023-12-20T02:52:59;7.10;99.90
62998;DHT22;55949;52.590;7.330;2023-12-20T02:53:59;7.30;99.90
62998;DHT22;55949;52.590;7.330;2023-12-20T02:55:00;7.20;99.90
62998;DHT22;55949;52.590;7.330;2023-12-20T02:56:01;7.20;99.90
62998;DHT22;55949;52.590;7.330;2023-12-20T02:57:02;7.30;99.90
62998;DHT22;55949;52.590;7.330;2023-12-20T02:58:03;7.50;99.90
62998;DHT22;55949;52.590;7.330;2023-12-20T02:59:04;7.50;99.90
62998;DHT22;55949;52.590;7.330;2023-12-20T03:00:07;7.30;99.90
62998;DHT22;55949;52.590;7.330;2023-12-20T03:01:08;7.20;99.90
62998;DHT22;55949;52.590;7.330;2023-12-20T03:02:08;7.10;99.90
62998;DHT22;55949;52.590;7.330;2023-12-20T03:03:09;7.10;99.90
62998;DHT22;55949;52.590;7.330;2023-12-20T03:04:10;7.20;99.90
62998;DHT22;55949;52.590;7.330;2023-12-20T03:05:12;7.30;99.90
62998;DHT22;55949;52.590;7.330;2023-12-20T03:06:19;7.30;99.90
62998;DHT22;55949;52.590;7.330;2023-12-20T03:07:20;7.40;99.90
62998;DHT22;55949;52.590;7.330;2023-12-20T03:08:20;7.30;99.90
62998;DHT22;55949;52.590;7.330;2023-12-20T03:09:21;7.30;99.90
62998;DHT22;55949;52.590;7.330;2023-12-20T03:10:22;7.30;99.90
62998;DHT22;55949;52.590;7.330;2023-12-20T03:11:27;7.40;99.90
62998;DHT22;55949;52.590;7.330;2023-12-20T03:12:28;7.40;99.90
62998;DHT22;55949;52.590;7.330;2023-12-20T03:13:28;7.30;99.90
62998;DHT22;55949;52.590;7.330;2023-12-20T03:14:29;7.40;99.90
62998;DHT22;55949;52.590;7.330;2023-12-20T03:15:29;7.20;99.90
62998;DHT22;55949;52.590;7.330;2023-12-20T03:16:30;7.20;99.90
62998;DHT22;55949;52.590;7.330;2023-12-20T03:17:33;7.30;99.90
62998;DHT22;55949;52.590;7.330;2023-12-20T03:18:34;7.20;99.90
62998;DHT22;55949;52.590;7.330;2023-12-20T03:19:34;7.10;99.90
62998;DHT22;55949;52.590;7.330;2023-12-20T03:20:35;7.10;99.90
62998;DHT22;55949;52.590;7.330;2023-12-20T03:21:36;7.30;99.90
62998;DHT22;55949;52.590;7.330;2023-12-20T03:22:36;7.20;99.90
62998;DHT22;55949;52.590;7.330;2023-12-20T03:23:37;7.20;99.90
62998;DHT22;55949;52.590;7.330;2023-12-20T03:24:38;7.20;99.90
62998;DHT22;55949;52.590;7.330;2023-12-20T03:25:38;7.40;99.90
62998;DHT22;55949;52.590;7.330;2023-12-20T03:26:39;7.40;99.90
62998;DHT22;55949;52.590;7.330;2023-12-20T03:27:39;7.30;99.90
62998;DHT22;55949;52.590;7.330;2023-12-20T03:28:40;7.30;99.90
62998;DHT22;55949;52.590;7.330;2023-12-20T03:29:41;7.30;99.90
62998;DHT22;55949;52.590;7.330;2023-12-20T03:30:44;7.40;99.90
62998;DHT22;55949;52.590;7.330;2023-12-20T03:31:45;7.10;99.90
62998;DHT22;55949;52.590;7.330;2023-12-20T03:32:46;7.20;99.90
62998;DHT22;55949;52.590;7.330;2023-12-20T03:33:47;7.10;99.90
62998;DHT22;55949;52.590;7.330;2023-12-20T03:34:48;7.20;99.90
62998;DHT22;55949;52.590;7.330;2023-12-20T03:35:49;7.10;99.90
62998;DHT22;55949;52.590;7.330;2023-12-20T03:36:49;7.10;99.90
62998;DHT22;55949;52.590;7.330;2023-12-20T03:37:50;7.10;99.90
62998;DHT22;55949;52.590;7.330;2023-12-20T03:38:50;7.10;99.90
62998;DHT22;55949;52.590;7.330;2023-12-20T03:39:51;7.00;99.90
62998;DHT22;55949;52.590;7.330;2023-12-20T03:40:52;7.00;99.90
62998;DHT22;55949;52.590;7.330;2023-12-20T03:41:52;6.90;99.90
62998;DHT22;55949;52.590;7.330;2023-12-20T03:42:53;7.00;99.90
62998;DHT22;55949;52.590;7.330;2023-12-20T03:43:54;7.00;99.90
62998;DHT22;55949;52.590;7.330;2023-12-20T03:44:54;6.90;99.90
62998;DHT22;55949;52.590;7.330;2023-12-20T03:45:55;6.90;99.90
62998;DHT22;55949;52.590;7.330;2023-12-20T03:46:56;6.90;99.90
62998;DHT22;55949;52.590;7.330;2023-12-20T03:47:57;7.00;99.90
62998;DHT22;55949;52.590;7.330;2023-12-20T03:48:57;7.00;99.90
62998;DHT22;55949;52.590;7.330;2023-12-20T03:49:58;7.00;99.90
62998;DHT22;55949;52.590;7.330;2023-12-20T03:50:58;7.00;99.90
62998;DHT22;55949;52.590;7.330;2023-12-20T03:51:59;7.30;99.90
62998;DHT22;55949;52.590;7.330;2023-12-20T03:53:00;7.40;99.90
62998;DHT22;55949;52.590;7.330;2023-12-20T03:54:00;7.30;99.90
62998;DHT22;55949;52.590;7.330;2023-12-20T03:55:01;7.30;99.90
62998;DHT22;55949;52.590;7.330;2023-12-20T03:56:02;7.20;99.90
62998;DHT22;55949;52.590;7.330;2023-12-20T03:57:02;7.30;99.90
62998;DHT22;55949;52.590;7.330;2023-12-20T03:58:03;7.30;99.90
62998;DHT22;55949;52.590;7.330;2023-12-20T03:59:04;7.20;99.90
62998;DHT22;55949;52.590;7.330;2023-12-20T04:00:07;7.30;99.90
62998;DHT22;55949;52.590;7.330;2023-12-20T04:01:10;7.30;99.90
62998;DHT22;55949;52.590;7.330;2023-12-20T04:02:14;7.30;99.90
62998;DHT22;55949;52.590;7.330;2023-12-20T04:03:15;7.20;99.90
62998;DHT22;55949;52.590;7.330;2023-12-20T04:04:15;7.20;99.90
62998;DHT22;55949;52.590;7.330;2023-12-20T04:05:16;7.20;99.90
62998;DHT22;55949;52.590;7.330;2023-12-20T04:06:20;7.30;99.90
62998;DHT22;55949;52.590;7.330;2023-12-20T04:07:20;7.30;99.90
62998;DHT22;55949;52.590;7.330;2023-12-20T04:08:21;7.30;99.90
62998;DHT22;55949;52.590;7.330;2023-12-20T04:09:22;7.20;99.90
62998;DHT22;55949;52.590;7.330;2023-12-20T04:10:23;7.20;99.90
62998;DHT22;55949;52.590;7.330;2023-12-20T04:11:23;7.10;99.90
62998;DHT22;55949;52.590;7.330;2023-12-20T04:12:24;7.20;99.90
62998;DHT22;55949;52.590;7.330;2023-12-20T04:13:25;7.30;99.90
62998;DHT22;55949;52.590;7.330;2023-12-20T04:14:25;7.30;99.90
62998;DHT22;55949;52.590;7.330;2023-12-20T04:15:26;7.40;99.90
62998;DHT22;55949;52.590;7.330;2023-12-20T04:16:27;7.50;99.90
62998;DHT22;55949;52.590;7.330;2023-12-20T04:17:27;7.30;99.90
62998;DHT22;55949;52.590;7.330;2023-12-20T04:18:28;7.20;99.90
62998;DHT22;55949;52.590;7.330;2023-12-20T04:19:29;7.20;99.90
62998;DHT22;55949;52.590;7.330;2023-12-20T04:20:29;7.30;99.90
62998;DHT22;55949;52.590;7.330;2023-12-20T04:21:30;7.10;99.90
62998;DHT22;55949;52.590;7.330;2023-12-20T04:22:31;7.20;99.90
62998;DHT22;55949;52.590;7.330;2023-12-20T04:23:31;7.30;99.90
62998;DHT22;55949;52.590;7.330;2023-12-20T04:24:32;7.10;99.90
62998;DHT22;55949;52.590;7.330;2023-12-20T04:25:33;7.30;99.90
62998;DHT22;55949;52.590;7.330;2023-12-20T04:26:33;7.20;99.90
62998;DHT22;55949;52.590;7.330;2023-12-20T04:27:34;7.10;99.90
62998;DHT22;55949;52.590;7.330;2023-12-20T04:28:35;7.20;99.90
62998;DHT22;55949;52.590;7.330;2023-12-20T04:29:35;7.30;99.90
62998;DHT22;55949;52.590;7.330;2023-12-20T04:30:36;7.30;99.90
62998;DHT22;55949;52.590;7.330;2023-12-20T04:31:36;7.10;99.90
62998;DHT22;55949;52.590;7.330;2023-12-20T04:32:37;7.10;99.90
62998;DHT22;55949;52.590;7.330;2023-12-20T04:33:38;7.30;99.90
62998;DHT22;55949;52.590;7.330;2023-12-20T04:34:38;7.30;99.90
62998;DHT22;55949;52.590;7.330;2023-12-20T04:35:39;7.30;99.90
62998;DHT22;55949;52.590;7.330;2023-12-20T04:36:41;7.30;99.90
62998;DHT22;55949;52.590;7.330;2023-12-20T04:37:42;7.30;99.90
62998;DHT22;55949;52.590;7.330;2023-12-20T04:38:42;7.20;99.90
62998;DHT22;55949;52.590;7.330;2023-12-20T04:39:52;7.10;99.90
62998;DHT22;55949;52.590;7.330;2023-12-20T04:40:52;7.00;99.90
62998;DHT22;55949;52.590;7.330;2023-12-20T04:41:53;7.10;99.90
62998;DHT22;55949;52.590;7.330;2023-12-20T04:42:54;7.20;99.90
62998;DHT22;55949;52.590;7.330;2023-12-20T04:43:54;7.30;99.90
62998;DHT22;55949;52.590;7.330;2023-12-20T04:44:55;7.00;99.90
62998;DHT22;55949;52.590;7.330;2023-12-20T04:45:58;7.30;99.90
62998;DHT22;55949;52.590;7.330;2023-12-20T04:46:59;7.10;99.90
62998;DHT22;55949;52.590;7.330;2023-12-20T04:48:01;7.10;99.90
62998;DHT22;55949;52.590;7.330;2023-12-20T04:49:02;7.10;99.90
62998;DHT22;55949;52.590;7.330;2023-12-20T04:50:03;7.20;99.90
62998;DHT22;55949;52.590;7.330;2023-12-20T04:51:04;7.10;99.90
62998;DHT22;55949;52.590;7.330;2023-12-20T04:52:06;7.20;99.90
62998;DHT22;55949;52.590;7.330;2023-12-20T04:53:07;7.10;99.90
62998;DHT22;55949;52.590;7.330;2023-12-20T04:54:07;7.10;99.90
62998;DHT22;55949;52.590;7.330;2023-12-20T04:55:08;7.30;99.90
62998;DHT22;55949;52.590;7.330;2023-12-20T04:56:09;7.30;99.90
62998;DHT22;55949;52.590;7.330;2023-12-20T04:57:10;7.20;99.90
62998;DHT22;55949;52.590;7.330;2023-12-20T04:58:10;7.10;99.90
62998;DHT22;55949;52.590;7.330;2023-12-20T04:59:11;7.10;99.90
62998;DHT22;55949;52.590;7.330;2023-12-20T05:00:12;7.10;99.90
62998;DHT22;55949;52.590;7.330;2023-12-20T05:01:14;7.20;99.90
62998;DHT22;55949;52.590;7.330;2023-12-20T05:02:15;7.30;99.90
62998;DHT22;55949;52.590;7.330;2023-12-20T05:03:16;7.30;99.90
62998;DHT22;55949;52.590;7.330;2023-12-20T05:04:17;7.30;99.90
62998;DHT22;55949;52.590;7.330;2023-12-20T05:05:17;7.30;99.90
62998;DHT22;55949;52.590;7.330;2023-12-20T05:06:18;7.40;99.90
62998;DHT22;55949;52.590;7.330;2023-12-20T05:07:19;7.30;99.90
62998;DHT22;55949;52.590;7.330;2023-12-20T05:08:19;7.40;99.90
62998;DHT22;55949;52.590;7.330;2023-12-20T05:09:20;7.30;99.90
62998;DHT22;55949;52.590;7.330;2023-12-20T05:10:21;7.20;99.90
62998;DHT22;55949;52.590;7.330;2023-12-20T05:11:21;7.20;99.90
62998;DHT22;55949;52.590;7.330;2023-12-20T05:12:22;7.10;99.90
62998;DHT22;55949;52.590;7.330;2023-12-20T05:13:23;7.10;99.90
62998;DHT22;55949;52.590;7.330;2023-12-20T05:14:24;7.20;99.90
62998;DHT22;55949;52.590;7.330;2023-12-20T05:15:25;7.40;99.90
62998;DHT22;55949;52.590;7.330;2023-12-20T05:16:26;7.40;99.90
62998;DHT22;55949;52.590;7.330;2023-12-20T05:17:26;7.40;99.90
62998;DHT22;55949;52.590;7.330;2023-12-20T05:18:27;7.30;99.90
62998;DHT22;55949;52.590;7.330;2023-12-20T05:19:28;7.40;99.90
62998;DHT22;55949;52.590;7.330;2023-12-20T05:20:28;7.50;99.90
62998;DHT22;55949;52.590;7.330;2023-12-20T05:21:29;7.60;99.90
62998;DHT22;55949;52.590;7.330;2023-12-20T05:22:31;7.40;99.90
62998;DHT22;55949;52.590;7.330;2023-12-20T05:23:31;7.40;99.90
62998;DHT22;55949;52.590;7.330;2023-12-20T05:24:32;7.50;99.90
62998;DHT22;55949;52.590;7.330;2023-12-20T05:25:33;7.40;99.90
62998;DHT22;55949;52.590;7.330;2023-12-20T05:26:33;7.40;99.90
62998;DHT22;55949;52.590;7.330;2023-12-20T05:27:34;7.50;99.90
62998;DHT22;55949;52.590;7.330;2023-12-20T05:28:35;7.50;99.90
62998;DHT22;55949;52.590;7.330;2023-12-20T05:29:35;7.50;99.90
62998;DHT22;55949;52.590;7.330;2023-12-20T05:30:36;7.40;99.90
62998;DHT22;55949;52.590;7.330;2023-12-20T05:31:36;7.50;99.90
62998;DHT22;55949;52.590;7.330;2023-12-20T05:32:37;7.50;99.90
62998;DHT22;55949;52.590;7.330;2023-12-20T05:33:38;7.50;99.90
62998;DHT22;55949;52.590;7.330;2023-12-20T05:34:38;7.50;99.90
62998;DHT22;55949;52.590;7.330;2023-12-20T05:35:39;7.60;99.90
62998;DHT22;55949;52.590;7.330;2023-12-20T05:36:40;7.70;99.90
62998;DHT22;55949;52.590;7.330;2023-12-20T05:37:41;7.60;99.90
62998;DHT22;55949;52.590;7.330;2023-12-20T05:38:42;7.60;99.90
62998;DHT22;55949;52.590;7.330;2023-12-20T05:39:43;7.60;99.90
62998;DHT22;55949;52.590;7.330;2023-12-20T05:40:43;7.50;99.90
62998;DHT22;55949;52.590;7.330;2023-12-20T05:41:44;7.40;99.90
62998;DHT22;55949;52.590;7.330;2023-12-20T05:42:44;7.40;99.90
62998;DHT22;55949;52.590;7.330;2023-12-20T05:43:45;7.40;99.90
62998;DHT22;55949;52.590;7.330;2023-12-20T05:44:46;7.40;99.90
62998;DHT22;55949;52.590;7.330;2023-12-20T05:45:46;7.50;99.90
62998;DHT22;55949;52.590;7.330;2023-12-20T05:46:47;7.50;99.90
62998;DHT22;55949;52.590;7.330;2023-12-20T05:47:48;7.50;99.90
62998;DHT22;55949;52.590;7.330;2023-12-20T05:48:48;7.50;99.90
62998;DHT22;55949;52.590;7.330;2023-12-20T05:49:49;7.40;99.90
62998;DHT22;55949;52.590;7.330;2023-12-20T05:50:50;7.40;99.90
62998;DHT22;55949;52.590;7.330;2023-12-20T05:51:51;7.40;99.90
62998;DHT22;55949;52.590;7.330;2023-12-20T05:52:51;7.40;99.90
62998;DHT22;55949;52.590;7.330;2023-12-20T05:53:52;7.40;99.90
62998;DHT22;55949;52.590;7.330;2023-12-20T05:54:53;7.50;99.90
62998;DHT22;55949;52.590;7.330;2023-12-20T05:55:53;7.50;99.90
62998;DHT22;55949;52.590;7.330;2023-12-20T05:56:54;7.50;99.90
62998;DHT22;55949;52.590;7.330;2023-12-20T05:57:55;7.40;99.90
62998;DHT22;55949;52.590;7.330;2023-12-20T05:58:56;7.50;99.90
62998;DHT22;55949;52.590;7.330;2023-12-20T05:59:56;7.50;99.90
62998;DHT22;55949;52.590;7.330;2023-12-20T06:00:57;7.40;99.90
62998;DHT22;55949;52.590;7.330;2023-12-20T06:01:58;7.50;99.90
62998;DHT22;55949;52.590;7.330;2023-12-20T06:02:58;7.60;99.90
62998;DHT22;55949;52.590;7.330;2023-12-20T06:03:59;7.60;99.90
62998;DHT22;55949;52.590;7.330;2023-12-20T06:05:00;7.50;99.90
62998;DHT22;55949;52.590;7.330;2023-12-20T06:06:07;7.50;99.90
62998;DHT22;55949;52.590;7.330;2023-12-20T06:07:08;7.40;99.90
62998;DHT22;55949;52.590;7.330;2023-12-20T06:08:11;7.40;99.90
62998;DHT22;55949;52.590;7.330;2023-12-20T06:09:12;7.60;99.90
62998;DHT22;55949;52.590;7.330;2023-12-20T06:10:13;7.50;99.90
62998;DHT22;55949;52.590;7.330;2023-12-20T06:11:14;7.70;99.90
62998;DHT22;55949;52.590;7.330;2023-12-20T06:12:15;7.60;99.90
62998;DHT22;55949;52.590;7.330;2023-12-20T06:13:15;7.60;99.90
62998;DHT22;55949;52.590;7.330;2023-12-20T06:14:16;7.70;99.90
62998;DHT22;55949;52.590;7.330;2023-12-20T06:15:18;7.60;99.90
62998;DHT22;55949;52.590;7.330;2023-12-20T06:16:19;7.60;99.90
62998;DHT22;55949;52.590;7.330;2023-12-20T06:17:19;7.60;99.90
62998;DHT22;55949;52.590;7.330;2023-12-20T06:18:20;7.60;99.90
62998;DHT22;55949;52.590;7.330;2023-12-20T06:19:21;7.50;99.90
62998;DHT22;55949;52.590;7.330;2023-12-20T06:20:21;7.60;99.90
62998;DHT22;55949;52.590;7.330;2023-12-20T06:21:22;7.60;99.90
62998;DHT22;55949;52.590;7.330;2023-12-20T06:22:23;7.60;99.90
62998;DHT22;55949;52.590;7.330;2023-12-20T06:23:23;7.60;99.90
62998;DHT22;55949;52.590;7.330;2023-12-20T06:24:24;7.50;99.90
62998;DHT22;55949;52.590;7.330;2023-12-20T06:25:28;7.50;99.90
62998;DHT22;55949;52.590;7.330;2023-12-20T06:26:29;7.60;99.90
62998;DHT22;55949;52.590;7.330;2023-12-20T06:27:29;7.60;99.90
62998;DHT22;55949;52.590;7.330;2023-12-20T06:28:31;8.00;99.90
62998;DHT22;55949;52.590;7.330;2023-12-20T06:29:31;7.70;99.90
62998;DHT22;55949;52.590;7.330;2023-12-20T06:30:32;7.60;99.90